PILOTS ONLINE: 975    ATC ONLINE: 211

KSNA

John Wayne Airport-Orange County Airport

Location

IATA SNA
City Santa Ana
Country  United States
Latitude 33° 40' 32" N
Longitude 117° 52' 4" W
Elevation 56 ft
Type Large Airport

Map

Weather

METAR
2014/10/25 12:53
KSNA 251253Z 00000KT 10SM FEW042 OVC100 19/16 A2999 RMK AO2 SLP154 T01940156
TAF
2014/10/25 13:39
TAF 
      AMD KSNA 251234Z 2513/2612 VRB04KT P6SM BKN080 
     FM251800 23010KT P6SM SCT080 
     FM260300 VRB05KT P6SM SCT015 
     FM260500 VRB05KT P6SM OVC015

Runways

01L/19R 5700 ft / 150 ft
01R/19L 2887 ft / 75 ft

Outbound flights

Callsign Flying to Pilot ATD/STD ETA Aircraft

Inbound flights

Callsign Flying from Pilot ATD ETA Aircraft